sensor_id;sensor_type;location;lat;lon;timestamp;P1;durP1;ratioP1;P2;durP2;ratioP2
16407;SDS011;8313;49.894;8.084;2024-02-23T00:01:40;1.50;;;0.60;;
16407;SDS011;8313;49.894;8.084;2024-02-23T00:04:05;0.80;;;0.43;;
16407;SDS011;8313;49.894;8.084;2024-02-23T00:06:33;0.43;;;0.37;;
16407;SDS011;8313;49.894;8.084;2024-02-23T00:08:59;1.20;;;0.77;;
16407;SDS011;8313;49.894;8.084;2024-02-23T00:11:25;4.27;;;0.67;;
16407;SDS011;8313;49.894;8.084;2024-02-23T00:13:53;3.73;;;0.80;;
16407;SDS011;8313;49.894;8.084;2024-02-23T00:16:18;1.23;;;0.70;;
16407;SDS011;8313;49.894;8.084;2024-02-23T00:18:44;0.60;;;0.50;;
16407;SDS011;8313;49.894;8.084;2024-02-23T00:21:10;0.50;;;0.50;;
16407;SDS011;8313;49.894;8.084;2024-02-23T00:23:36;1.13;;;0.57;;
16407;SDS011;8313;49.894;8.084;2024-02-23T00:26:01;1.53;;;0.60;;
16407;SDS011;8313;49.894;8.084;2024-02-23T00:28:27;1.43;;;0.70;;
16407;SDS011;8313;49.894;8.084;2024-02-23T00:30:53;1.00;;;0.87;;
16407;SDS011;8313;49.894;8.084;2024-02-23T00:33:19;0.87;;;0.60;;
16407;SDS011;8313;49.894;8.084;2024-02-23T00:35:44;1.53;;;1.20;;
16407;SDS011;8313;49.894;8.084;2024-02-23T00:38:10;0.60;;;0.60;;
16407;SDS011;8313;49.894;8.084;2024-02-23T00:40:36;0.50;;;0.50;;
16407;SDS011;8313;49.894;8.084;2024-02-23T00:43:02;0.70;;;0.70;;
16407;SDS011;8313;49.894;8.084;2024-02-23T00:45:28;0.60;;;0.50;;
16407;SDS011;8313;49.894;8.084;2024-02-23T00:47:53;1.90;;;0.77;;
16407;SDS011;8313;49.894;8.084;2024-02-23T00:50:19;0.93;;;0.67;;
16407;SDS011;8313;49.894;8.084;2024-02-23T00:52:45;5.27;;;0.50;;
16407;SDS011;8313;49.894;8.084;2024-02-23T00:55:11;5.33;;;1.00;;
16407;SDS011;8313;49.894;8.084;2024-02-23T00:57:37;1.17;;;0.77;;
16407;SDS011;8313;49.894;8.084;2024-02-23T01:00:03;0.80;;;0.70;;
16407;SDS011;8313;49.894;8.084;2024-02-23T01:02:34;0.40;;;0.40;;
16407;SDS011;8313;49.894;8.084;2024-02-23T01:05:00;0.47;;;0.30;;
16407;SDS011;8313;49.894;8.084;2024-02-23T01:07:25;4.50;;;0.70;;
16407;SDS011;8313;49.894;8.084;2024-02-23T01:09:51;0.87;;;0.73;;
16407;SDS011;8313;49.894;8.084;2024-02-23T01:12:17;0.50;;;0.50;;
16407;SDS011;8313;49.894;8.084;2024-02-23T01:14:42;0.83;;;0.60;;
16407;SDS011;8313;49.894;8.084;2024-02-23T01:17:08;2.20;;;0.70;;
16407;SDS011;8313;49.894;8.084;2024-02-23T01:19:34;0.60;;;0.30;;
16407;SDS011;8313;49.894;8.084;2024-02-23T01:21:59;0.40;;;0.30;;
16407;SDS011;8313;49.894;8.084;2024-02-23T01:24:28;0.93;;;0.60;;
16407;SDS011;8313;49.894;8.084;2024-02-23T01:26:54;0.90;;;0.50;;
16407;SDS011;8313;49.894;8.084;2024-02-23T01:29:21;1.83;;;0.37;;
16407;SDS011;8313;49.894;8.084;2024-02-23T01:31:50;0.63;;;0.60;;
16407;SDS011;8313;49.894;8.084;2024-02-23T01:34:16;0.50;;;0.50;;
16407;SDS011;8313;49.894;8.084;2024-02-23T01:36:42;0.80;;;0.40;;
16407;SDS011;8313;49.894;8.084;2024-02-23T01:39:08;1.03;;;0.40;;
16407;SDS011;8313;49.894;8.084;2024-02-23T01:41:35;0.50;;;0.50;;
16407;SDS011;8313;49.894;8.084;2024-02-23T01:44:00;2.33;;;0.53;;
16407;SDS011;8313;49.894;8.084;2024-02-23T01:46:26;1.27;;;0.40;;
16407;SDS011;8313;49.894;8.084;2024-02-23T01:48:52;0.50;;;0.40;;
16407;SDS011;8313;49.894;8.084;2024-02-23T01:51:18;0.50;;;0.50;;
16407;SDS011;8313;49.894;8.084;2024-02-23T01:53:44;1.03;;;0.40;;
16407;SDS011;8313;49.894;8.084;2024-02-23T01:56:10;1.07;;;0.43;;
16407;SDS011;8313;49.894;8.084;2024-02-23T01:58:42;0.40;;;0.40;;
16407;SDS011;8313;49.894;8.084;2024-02-23T02:01:09;0.50;;;0.50;;
16407;SDS011;8313;49.894;8.084;2024-02-23T02:03:36;0.50;;;0.40;;
16407;SDS011;8313;49.894;8.084;2024-02-23T02:06:04;4.90;;;0.97;;
16407;SDS011;8313;49.894;8.084;2024-02-23T02:08:31;2.07;;;0.70;;
16407;SDS011;8313;49.894;8.084;2024-02-23T02:10:58;0.40;;;0.30;;
16407;SDS011;8313;49.894;8.084;2024-02-23T02:13:24;0.77;;;0.50;;
16407;SDS011;8313;49.894;8.084;2024-02-23T02:15:50;0.50;;;0.47;;
16407;SDS011;8313;49.894;8.084;2024-02-23T02:18:15;0.63;;;0.60;;
16407;SDS011;8313;49.894;8.084;2024-02-23T02:20:46;2.40;;;0.50;;
16407;SDS011;8313;49.894;8.084;2024-02-23T02:23:17;0.60;;;0.40;;
16407;SDS011;8313;49.894;8.084;2024-02-23T02:25:43;1.33;;;0.70;;
16407;SDS011;8313;49.894;8.084;2024-02-23T02:28:08;6.13;;;0.87;;
16407;SDS011;8313;49.894;8.084;2024-02-23T02:30:34;0.50;;;0.50;;
16407;SDS011;8313;49.894;8.084;2024-02-23T02:33:00;0.90;;;0.77;;
16407;SDS011;8313;49.894;8.084;2024-02-23T02:35:25;0.80;;;0.70;;
16407;SDS011;8313;49.894;8.084;2024-02-23T02:37:51;0.57;;;0.40;;
16407;SDS011;8313;49.894;8.084;2024-02-23T02:40:16;11.37;;;0.90;;
16407;SDS011;8313;49.894;8.084;2024-02-23T02:42:42;0.50;;;0.50;;
16407;SDS011;8313;49.894;8.084;2024-02-23T02:45:08;6.80;;;1.13;;
16407;SDS011;8313;49.894;8.084;2024-02-23T02:47:33;1.03;;;0.50;;
16407;SDS011;8313;49.894;8.084;2024-02-23T02:50:01;0.50;;;0.40;;
16407;SDS011;8313;49.894;8.084;2024-02-23T02:52:27;2.53;;;0.63;;
16407;SDS011;8313;49.894;8.084;2024-02-23T02:54:53;0.60;;;0.57;;
16407;SDS011;8313;49.894;8.084;2024-02-23T02:57:19;3.70;;;0.73;;
16407;SDS011;8313;49.894;8.084;2024-02-23T02:59:45;0.40;;;0.40;;
16407;SDS011;8313;49.894;8.084;2024-02-23T03:02:11;2.23;;;0.57;;
16407;SDS011;8313;49.894;8.084;2024-02-23T03:04:37;0.40;;;0.40;;
16407;SDS011;8313;49.894;8.084;2024-02-23T03:07:02;0.67;;;0.40;;
16407;SDS011;8313;49.894;8.084;2024-02-23T03:09:28;0.43;;;0.33;;
16407;SDS011;8313;49.894;8.084;2024-02-23T03:11:54;1.00;;;0.73;;
16407;SDS011;8313;49.894;8.084;2024-02-23T03:14:20;0.50;;;0.40;;
16407;SDS011;8313;49.894;8.084;2024-02-23T03:16:46;0.50;;;0.40;;
16407;SDS011;8313;49.894;8.084;2024-02-23T03:19:13;2.33;;;0.60;;
16407;SDS011;8313;49.894;8.084;2024-02-23T03:21:38;5.13;;;0.90;;
16407;SDS011;8313;49.894;8.084;2024-02-23T03:24:04;1.73;;;0.80;;
16407;SDS011;8313;49.894;8.084;2024-02-23T03:26:30;0.43;;;0.43;;
16407;SDS011;8313;49.894;8.084;2024-02-23T03:28:55;0.53;;;0.50;;
16407;SDS011;8313;49.894;8.084;2024-02-23T03:31:21;1.37;;;0.50;;
16407;SDS011;8313;49.894;8.084;2024-02-23T03:33:46;1.10;;;0.60;;
16407;SDS011;8313;49.894;8.084;2024-02-23T03:36:12;0.80;;;0.80;;
16407;SDS011;8313;49.894;8.084;2024-02-23T03:38:38;0.63;;;0.63;;
16407;SDS011;8313;49.894;8.084;2024-02-23T03:41:03;0.70;;;0.60;;
16407;SDS011;8313;49.894;8.084;2024-02-23T03:43:29;0.97;;;0.97;;
16407;SDS011;8313;49.894;8.084;2024-02-23T03:45:55;1.77;;;1.10;;
16407;SDS011;8313;49.894;8.084;2024-02-23T03:48:20;3.07;;;1.30;;
16407;SDS011;8313;49.894;8.084;2024-02-23T03:50:46;0.83;;;0.83;;
16407;SDS011;8313;49.894;8.084;2024-02-23T03:53:12;1.43;;;1.23;;
16407;SDS011;8313;49.894;8.084;2024-02-23T03:55:37;1.03;;;1.03;;
16407;SDS011;8313;49.894;8.084;2024-02-23T03:58:03;1.37;;;1.27;;
16407;SDS011;8313;49.894;8.084;2024-02-23T04:00:29;1.97;;;1.73;;
16407;SDS011;8313;49.894;8.084;2024-02-23T04:02:54;1.33;;;1.10;;
16407;SDS011;8313;49.894;8.084;2024-02-23T04:05:20;3.50;;;1.00;;
16407;SDS011;8313;49.894;8.084;2024-02-23T04:07:45;1.40;;;1.07;;
16407;SDS011;8313;49.894;8.084;2024-02-23T04:10:11;1.10;;;1.00;;
16407;SDS011;8313;49.894;8.084;2024-02-23T04:12:41;2.03;;;1.37;;
16407;SDS011;8313;49.894;8.084;2024-02-23T04:15:09;1.50;;;1.40;;
16407;SDS011;8313;49.894;8.084;2024-02-23T04:17:35;5.90;;;1.23;;
16407;SDS011;8313;49.894;8.084;2024-02-23T04:20:01;1.40;;;1.20;;
16407;SDS011;8313;49.894;8.084;2024-02-23T04:22:32;1.03;;;1.03;;
16407;SDS011;8313;49.894;8.084;2024-02-23T04:24:58;2.20;;;1.27;;
16407;SDS011;8313;49.894;8.084;2024-02-23T04:27:23;1.07;;;1.07;;
16407;SDS011;8313;49.894;8.084;2024-02-23T04:29:49;1.80;;;1.47;;
16407;SDS011;8313;49.894;8.084;2024-02-23T04:32:15;1.80;;;1.07;;
16407;SDS011;8313;49.894;8.084;2024-02-23T04:34:40;1.17;;;0.97;;
16407;SDS011;8313;49.894;8.084;2024-02-23T04:37:06;2.03;;;1.33;;
16407;SDS011;8313;49.894;8.084;2024-02-23T04:39:32;2.13;;;1.20;;
16407;SDS011;8313;49.894;8.084;2024-02-23T04:41:58;2.70;;;1.30;;
16407;SDS011;8313;49.894;8.084;2024-02-23T04:44:23;1.33;;;0.80;;
16407;SDS011;8313;49.894;8.084;2024-02-23T04:46:49;3.17;;;1.30;;
16407;SDS011;8313;49.894;8.084;2024-02-23T04:49:15;1.93;;;1.30;;
16407;SDS011;8313;49.894;8.084;2024-02-23T04:51:40;0.67;;;0.67;;
16407;SDS011;8313;49.894;8.084;2024-02-23T04:54:06;1.10;;;0.87;;
16407;SDS011;8313;49.894;8.084;2024-02-23T04:56:32;2.00;;;0.83;;
16407;SDS011;8313;49.894;8.084;2024-02-23T04:58:58;5.53;;;0.93;;
16407;SDS011;8313;49.894;8.084;2024-02-23T05:01:24;2.10;;;0.70;;
16407;SDS011;8313;49.894;8.084;2024-02-23T05:03:50;1.87;;;1.40;;
16407;SDS011;8313;49.894;8.084;2024-02-23T05:06:15;1.53;;;1.23;;
16407;SDS011;8313;49.894;8.084;2024-02-23T05:08:41;13.23;;;1.53;;
16407;SDS011;8313;49.894;8.084;2024-02-23T05:11:06;1.40;;;1.10;;
16407;SDS011;8313;49.894;8.084;2024-02-23T05:13:32;1.07;;;0.97;;
16407;SDS011;8313;49.894;8.084;2024-02-23T05:15:58;1.90;;;1.20;;
16407;SDS011;8313;49.894;8.084;2024-02-23T05:18:23;4.13;;;1.23;;
16407;SDS011;8313;49.894;8.084;2024-02-23T05:20:49;2.77;;;1.23;;
16407;SDS011;8313;49.894;8.084;2024-02-23T05:23:15;0.80;;;0.80;;
16407;SDS011;8313;49.894;8.084;2024-02-23T05:25:41;2.13;;;1.30;;
16407;SDS011;8313;49.894;8.084;2024-02-23T05:28:07;1.90;;;1.30;;
16407;SDS011;8313;49.894;8.084;2024-02-23T05:30:32;2.67;;;1.17;;
16407;SDS011;8313;49.894;8.084;2024-02-23T05:32:58;2.93;;;1.73;;
16407;SDS011;8313;49.894;8.084;2024-02-23T05:35:24;1.23;;;1.13;;
16407;SDS011;8313;49.894;8.084;2024-02-23T05:37:51;0.93;;;0.83;;
16407;SDS011;8313;49.894;8.084;2024-02-23T05:40:17;3.33;;;1.60;;
16407;SDS011;8313;49.894;8.084;2024-02-23T05:42:43;3.30;;;1.43;;
16407;SDS011;8313;49.894;8.084;2024-02-23T05:45:08;2.70;;;1.20;;
16407;SDS011;8313;49.894;8.084;2024-02-23T05:47:34;1.63;;;1.07;;
16407;SDS011;8313;49.894;8.084;2024-02-23T05:50:02;2.90;;;1.20;;
16407;SDS011;8313;49.894;8.084;2024-02-23T05:52:29;1.67;;;1.07;;
16407;SDS011;8313;49.894;8.084;2024-02-23T05:54:57;2.10;;;1.03;;
16407;SDS011;8313;49.894;8.084;2024-02-23T05:57:25;2.50;;;1.43;;
16407;SDS011;8313;49.894;8.084;2024-02-23T05:59:52;1.00;;;1.00;;
16407;SDS011;8313;49.894;8.084;2024-02-23T06:02:18;2.20;;;1.13;;
16407;SDS011;8313;49.894;8.084;2024-02-23T06:04:43;2.20;;;1.07;;
16407;SDS011;8313;49.894;8.084;2024-02-23T06:07:10;1.60;;;0.97;;
16407;SDS011;8313;49.894;8.084;2024-02-23T06:09:35;4.90;;;1.33;;
16407;SDS011;8313;49.894;8.084;2024-02-23T06:12:01;1.20;;;1.00;;
16407;SDS011;8313;49.894;8.084;2024-02-23T06:14:27;0.83;;;0.70;;
16407;SDS011;8313;49.894;8.084;2024-02-23T06:16:52;0.90;;;0.90;;
16407;SDS011;8313;49.894;8.084;2024-02-23T06:19:18;1.90;;;0.90;;
16407;SDS011;8313;49.894;8.084;2024-02-23T06:21:47;0.63;;;0.63;;
16407;SDS011;8313;49.894;8.084;2024-02-23T06:24:14;0.70;;;0.70;;
16407;SDS011;8313;49.894;8.084;2024-02-23T06:26:39;0.77;;;0.77;;
16407;SDS011;8313;49.894;8.084;2024-02-23T06:29:05;0.77;;;0.77;;
16407;SDS011;8313;49.894;8.084;2024-02-23T06:31:31;1.33;;;0.60;;
16407;SDS011;8313;49.894;8.084;2024-02-23T06:33:59;0.83;;;0.63;;
16407;SDS011;8313;49.894;8.084;2024-02-23T06:36:25;1.53;;;0.73;;
16407;SDS011;8313;49.894;8.084;2024-02-23T06:38:50;0.90;;;0.80;;
16407;SDS011;8313;49.894;8.084;2024-02-23T06:41:16;0.73;;;0.70;;
16407;SDS011;8313;49.894;8.084;2024-02-23T06:43:42;3.30;;;0.73;;
16407;SDS011;8313;49.894;8.084;2024-02-23T06:46:08;1.43;;;0.70;;
16407;SDS011;8313;49.894;8.084;2024-02-23T06:48:34;5.90;;;1.00;;
16407;SDS011;8313;49.894;8.084;2024-02-23T06:51:00;1.33;;;0.73;;
16407;SDS011;8313;49.894;8.084;2024-02-23T06:53:26;3.67;;;1.60;;
16407;SDS011;8313;49.894;8.084;2024-02-23T06:55:52;2.43;;;1.10;;
16407;SDS011;8313;49.894;8.084;2024-02-23T06:58:18;1.27;;;0.87;;
16407;SDS011;8313;49.894;8.084;2024-02-23T07:00:43;2.80;;;0.97;;
16407;SDS011;8313;49.894;8.084;2024-02-23T07:03:09;2.67;;;0.70;;
16407;SDS011;8313;49.894;8.084;2024-02-23T07:05:35;1.00;;;0.90;;
16407;SDS011;8313;49.894;8.084;2024-02-23T07:08:01;2.40;;;0.73;;
16407;SDS011;8313;49.894;8.084;2024-02-23T07:10:27;1.00;;;0.80;;
16407;SDS011;8313;49.894;8.084;2024-02-23T07:12:53;5.53;;;1.00;;
16407;SDS011;8313;49.894;8.084;2024-02-23T07:15:19;1.60;;;0.70;;
16407;SDS011;8313;49.894;8.084;2024-02-23T07:17:45;0.90;;;0.87;;
16407;SDS011;8313;49.894;8.084;2024-02-23T07:20:12;0.80;;;0.60;;
16407;SDS011;8313;49.894;8.084;2024-02-23T07:22:38;0.80;;;0.80;;
16407;SDS011;8313;49.894;8.084;2024-02-23T07:25:04;3.80;;;0.80;;
16407;SDS011;8313;49.894;8.084;2024-02-23T07:27:30;1.20;;;0.80;;
16407;SDS011;8313;49.894;8.084;2024-02-23T07:29:56;0.80;;;0.70;;
16407;SDS011;8313;49.894;8.084;2024-02-23T07:32:22;1.20;;;0.77;;
16407;SDS011;8313;49.894;8.084;2024-02-23T07:34:48;1.03;;;0.70;;
16407;SDS011;8313;49.894;8.084;2024-02-23T07:37:14;0.80;;;0.80;;
16407;SDS011;8313;49.894;8.084;2024-02-23T07:39:40;1.60;;;1.17;;
16407;SDS011;8313;49.894;8.084;2024-02-23T07:42:06;6.67;;;1.23;;
16407;SDS011;8313;49.894;8.084;2024-02-23T07:44:33;4.00;;;0.90;;
16407;SDS011;8313;49.894;8.084;2024-02-23T07:46:59;1.30;;;1.00;;
16407;SDS011;8313;49.894;8.084;2024-02-23T07:49:24;1.63;;;1.03;;
16407;SDS011;8313;49.894;8.084;2024-02-23T07:51:52;3.40;;;0.90;;
16407;SDS011;8313;49.894;8.084;2024-02-23T07:54:17;1.33;;;0.77;;
16407;SDS011;8313;49.894;8.084;2024-02-23T07:56:43;2.80;;;1.07;;
16407;SDS011;8313;49.894;8.084;2024-02-23T07:59:09;0.70;;;0.70;;
16407;SDS011;8313;49.894;8.084;2024-02-23T08:01:34;2.20;;;1.00;;
16407;SDS011;8313;49.894;8.084;2024-02-23T08:04:01;4.90;;;1.33;;
16407;SDS011;8313;49.894;8.084;2024-02-23T08:06:28;3.03;;;0.97;;
16407;SDS011;8313;49.894;8.084;2024-02-23T08:08:54;4.20;;;1.13;;
16407;SDS011;8313;49.894;8.084;2024-02-23T08:11:20;0.77;;;0.70;;
16407;SDS011;8313;49.894;8.084;2024-02-23T08:13:45;1.63;;;0.97;;
16407;SDS011;8313;49.894;8.084;2024-02-23T08:16:11;1.50;;;0.97;;
16407;SDS011;8313;49.894;8.084;2024-02-23T08:18:37;0.87;;;0.87;;
16407;SDS011;8313;49.894;8.084;2024-02-23T08:21:02;2.40;;;1.70;;
16407;SDS011;8313;49.894;8.084;2024-02-23T08:23:30;2.63;;;1.03;;
16407;SDS011;8313;49.894;8.084;2024-02-23T08:25:56;8.63;;;1.20;;
16407;SDS011;8313;49.894;8.084;2024-02-23T08:28:23;1.93;;;1.03;;
16407;SDS011;8313;49.894;8.084;2024-02-23T08:30:49;7.10;;;1.70;;
16407;SDS011;8313;49.894;8.084;2024-02-23T08:33:15;1.43;;;0.90;;
16407;SDS011;8313;49.894;8.084;2024-02-23T08:35:40;1.17;;;1.03;;
16407;SDS011;8313;49.894;8.084;2024-02-23T08:38:06;5.57;;;1.27;;
16407;SDS011;8313;49.894;8.084;2024-02-23T08:40:32;5.13;;;1.10;;
16407;SDS011;8313;49.894;8.084;2024-02-23T08:42:59;1.33;;;1.10;;
16407;SDS011;8313;49.894;8.084;2024-02-23T08:45:25;3.53;;;1.20;;
16407;SDS011;8313;49.894;8.084;2024-02-23T08:47:50;1.50;;;1.23;;
16407;SDS011;8313;49.894;8.084;2024-02-23T08:50:16;2.50;;;0.97;;
16407;SDS011;8313;49.894;8.084;2024-02-23T08:52:41;0.90;;;0.50;;
16407;SDS011;8313;49.894;8.084;2024-02-23T08:55:07;3.07;;;0.70;;
16407;SDS011;8313;49.894;8.084;2024-02-23T08:57:33;0.93;;;0.80;;
16407;SDS011;8313;49.894;8.084;2024-02-23T08:59:59;2.53;;;1.03;;
16407;SDS011;8313;49.894;8.084;2024-02-23T09:02:25;9.23;;;2.00;;
16407;SDS011;8313;49.894;8.084;2024-02-23T09:04:50;2.47;;;2.30;;
16407;SDS011;8313;49.894;8.084;2024-02-23T09:07:16;2.00;;;1.90;;
16407;SDS011;8313;49.894;8.084;2024-02-23T09:09:45;4.70;;;1.63;;
16407;SDS011;8313;49.894;8.084;2024-02-23T09:12:11;4.53;;;1.17;;
16407;SDS011;8313;49.894;8.084;2024-02-23T09:14:37;1.23;;;0.90;;
16407;SDS011;8313;49.894;8.084;2024-02-23T09:17:04;3.00;;;1.13;;
16407;SDS011;8313;49.894;8.084;2024-02-23T09:19:31;4.30;;;1.40;;
16407;SDS011;8313;49.894;8.084;2024-02-23T09:21:56;2.63;;;1.03;;
16407;SDS011;8313;49.894;8.084;2024-02-23T09:24:22;1.53;;;0.93;;
16407;SDS011;8313;49.894;8.084;2024-02-23T09:26:48;1.67;;;1.10;;
16407;SDS011;8313;49.894;8.084;2024-02-23T09:29:14;3.50;;;0.93;;
16407;SDS011;8313;49.894;8.084;2024-02-23T09:31:40;0.80;;;0.70;;
16407;SDS011;8313;49.894;8.084;2024-02-23T09:34:05;0.50;;;0.47;;
16407;SDS011;8313;49.894;8.084;2024-02-23T09:36:31;8.43;;;1.00;;
16407;SDS011;8313;49.894;8.084;2024-02-23T09:38:57;5.93;;;1.33;;
16407;SDS011;8313;49.894;8.084;2024-02-23T09:41:23;5.47;;;1.37;;
16407;SDS011;8313;49.894;8.084;2024-02-23T09:43:49;4.53;;;1.10;;
16407;SDS011;8313;49.894;8.084;2024-02-23T09:46:16;1.53;;;1.10;;
16407;SDS011;8313;49.894;8.084;2024-02-23T09:48:43;1.60;;;1.00;;
16407;SDS011;8313;49.894;8.084;2024-02-23T09:51:09;4.90;;;1.20;;
16407;SDS011;8313;49.894;8.084;2024-02-23T09:53:37;5.20;;;0.80;;
16407;SDS011;8313;49.894;8.084;2024-02-23T09:56:04;5.33;;;1.10;;
16407;SDS011;8313;49.894;8.084;2024-02-23T09:58:31;0.67;;;0.67;;
16407;SDS011;8313;49.894;8.084;2024-02-23T10:00:58;3.33;;;1.20;;
16407;SDS011;8313;49.894;8.084;2024-02-23T10:03:25;3.80;;;0.70;;
16407;SDS011;8313;49.894;8.084;2024-02-23T10:05:53;1.37;;;0.67;;
16407;SDS011;8313;49.894;8.084;2024-02-23T10:08:19;0.97;;;0.90;;
16407;SDS011;8313;49.894;8.084;2024-02-23T10:10:45;1.30;;;0.60;;
16407;SDS011;8313;49.894;8.084;2024-02-23T10:13:12;3.30;;;0.70;;
16407;SDS011;8313;49.894;8.084;2024-02-23T10:15:37;1.30;;;1.07;;
16407;SDS011;8313;49.894;8.084;2024-02-23T10:18:04;4.70;;;0.77;;
16407;SDS011;8313;49.894;8.084;2024-02-23T10:20:30;2.13;;;0.87;;
16407;SDS011;8313;49.894;8.084;2024-02-23T10:22:56;2.03;;;1.10;;
16407;SDS011;8313;49.894;8.084;2024-02-23T10:25:22;1.63;;;0.60;;
16407;SDS011;8313;49.894;8.084;2024-02-23T10:27:48;1.60;;;1.07;;
16407;SDS011;8313;49.894;8.084;2024-02-23T10:30:13;5.03;;;0.90;;
16407;SDS011;8313;49.894;8.084;2024-02-23T10:32:42;2.00;;;0.90;;
16407;SDS011;8313;49.894;8.084;2024-02-23T10:35:10;5.40;;;1.13;;
16407;SDS011;8313;49.894;8.084;2024-02-23T10:37:38;0.90;;;0.50;;
16407;SDS011;8313;49.894;8.084;2024-02-23T10:40:07;5.70;;;0.80;;
16407;SDS011;8313;49.894;8.084;2024-02-23T10:42:37;0.83;;;0.77;;
16407;SDS011;8313;49.894;8.084;2024-02-23T10:45:04;0.90;;;0.67;;
16407;SDS011;8313;49.894;8.084;2024-02-23T10:47:31;1.17;;;0.60;;
16407;SDS011;8313;49.894;8.084;2024-02-23T10:50:01;2.93;;;1.03;;
16407;SDS011;8313;49.894;8.084;2024-02-23T10:52:27;0.83;;;0.80;;
16407;SDS011;8313;49.894;8.084;2024-02-23T10:54:53;1.10;;;0.70;;
16407;SDS011;8313;49.894;8.084;2024-02-23T10:57:21;5.73;;;1.00;;
16407;SDS011;8313;49.894;8.084;2024-02-23T10:59:47;0.63;;;0.60;;
16407;SDS011;8313;49.894;8.084;2024-02-23T11:02:18;1.90;;;0.60;;
16407;SDS011;8313;49.894;8.084;2024-02-23T11:04:46;5.17;;;1.40;;
16407;SDS011;8313;49.894;8.084;2024-02-23T11:07:16;4.87;;;1.27;;
16407;SDS011;8313;49.894;8.084;2024-02-23T11:09:54;8.60;;;1.67;;
16407;SDS011;8313;49.894;8.084;2024-02-23T11:12:23;4.50;;;1.43;;
16407;SDS011;8313;49.894;8.084;2024-02-23T11:14:50;5.73;;;1.50;;
16407;SDS011;8313;49.894;8.084;2024-02-23T11:17:19;4.33;;;1.07;;
16407;SDS011;8313;49.894;8.084;2024-02-23T11:19:46;1.47;;;1.00;;
16407;SDS011;8313;49.894;8.084;2024-02-23T11:22:14;1.57;;;1.23;;
16407;SDS011;8313;49.894;8.084;2024-02-23T11:24:43;1.50;;;0.80;;
16407;SDS011;8313;49.894;8.084;2024-02-23T11:27:13;1.30;;;0.93;;
16407;SDS011;8313;49.894;8.084;2024-02-23T11:29:42;1.57;;;0.90;;
16407;SDS011;8313;49.894;8.084;2024-02-23T11:32:14;1.17;;;1.07;;
16407;SDS011;8313;49.894;8.084;2024-02-23T11:34:41;1.80;;;1.33;;
16407;SDS011;8313;49.894;8.084;2024-02-23T11:37:07;2.10;;;1.03;;
16407;SDS011;8313;49.894;8.084;2024-02-23T11:39:36;0.90;;;0.70;;
16407;SDS011;8313;49.894;8.084;2024-02-23T11:42:04;0.83;;;0.83;;
16407;SDS011;8313;49.894;8.084;2024-02-23T11:44:30;2.03;;;0.93;;
16407;SDS011;8313;49.894;8.084;2024-02-23T11:46:56;1.63;;;1.00;;
16407;SDS011;8313;49.894;8.084;2024-02-23T11:49:27;1.70;;;1.00;;
16407;SDS011;8313;49.894;8.084;2024-02-23T11:51:54;0.80;;;0.60;;
16407;SDS011;8313;49.894;8.084;2024-02-23T11:54:20;3.53;;;1.40;;
16407;SDS011;8313;49.894;8.084;2024-02-23T11:56:47;1.30;;;0.83;;
16407;SDS011;8313;49.894;8.084;2024-02-23T11:59:14;3.47;;;1.30;;
16407;SDS011;8313;49.894;8.084;2024-02-23T12:01:40;0.60;;;0.60;;
16407;SDS011;8313;49.894;8.084;2024-02-23T12:04:06;0.83;;;0.60;;
16407;SDS011;8313;49.894;8.084;2024-02-23T12:06:33;3.33;;;0.90;;
16407;SDS011;8313;49.894;8.084;2024-02-23T12:08:59;0.53;;;0.53;;
16407;SDS011;8313;49.894;8.084;2024-02-23T12:11:26;2.10;;;0.67;;
16407;SDS011;8313;49.894;8.084;2024-02-23T12:13:52;8.43;;;2.07;;
16407;SDS011;8313;49.894;8.084;2024-02-23T12:16:20;1.27;;;1.17;;
16407;SDS011;8313;49.894;8.084;2024-02-23T12:18:46;5.93;;;2.77;;
16407;SDS011;8313;49.894;8.084;2024-02-23T12:21:18;6.57;;;3.87;;
16407;SDS011;8313;49.894;8.084;2024-02-23T12:23:44;9.07;;;3.77;;
16407;SDS011;8313;49.894;8.084;2024-02-23T12:26:12;5.10;;;4.40;;
16407;SDS011;8313;49.894;8.084;2024-02-23T12:28:39;7.53;;;5.50;;
16407;SDS011;8313;49.894;8.084;2024-02-23T12:31:05;5.37;;;4.87;;
16407;SDS011;8313;49.894;8.084;2024-02-23T12:33:32;3.37;;;2.60;;
16407;SDS011;8313;49.894;8.084;2024-02-23T12:35:59;7.63;;;3.53;;
16407;SDS011;8313;49.894;8.084;2024-02-23T12:38:26;4.27;;;3.40;;
16407;SDS011;8313;49.894;8.084;2024-02-23T12:40:52;3.70;;;2.13;;
16407;SDS011;8313;49.894;8.084;2024-02-23T12:43:18;3.17;;;1.70;;
16407;SDS011;8313;49.894;8.084;2024-02-23T12:45:46;2.37;;;2.17;;
16407;SDS011;8313;49.894;8.084;2024-02-23T12:48:16;1.70;;;1.60;;
16407;SDS011;8313;49.894;8.084;2024-02-23T12:50:42;1.17;;;0.90;;
16407;SDS011;8313;49.894;8.084;2024-02-23T12:53:09;2.70;;;1.37;;
16407;SDS011;8313;49.894;8.084;2024-02-23T12:55:56;1.33;;;0.80;;
16407;SDS011;8313;49.894;8.084;2024-02-23T12:58:21;1.00;;;0.80;;
16407;SDS011;8313;49.894;8.084;2024-02-23T13:00:47;0.70;;;0.70;;
16407;SDS011;8313;49.894;8.084;2024-02-23T13:03:12;1.80;;;0.97;;
16407;SDS011;8313;49.894;8.084;2024-02-23T13:05:38;0.70;;;0.53;;
16407;SDS011;8313;49.894;8.084;2024-02-23T13:08:04;1.77;;;0.50;;
16407;SDS011;8313;49.894;8.084;2024-02-23T13:10:30;0.97;;;0.83;;
16407;SDS011;8313;49.894;8.084;2024-02-23T13:12:56;4.40;;;2.07;;
16407;SDS011;8313;49.894;8.084;2024-02-23T13:15:22;6.23;;;3.87;;
16407;SDS011;8313;49.894;8.084;2024-02-23T13:17:47;4.90;;;3.47;;
16407;SDS011;8313;49.894;8.084;2024-02-23T13:20:13;1.77;;;1.20;;
16407;SDS011;8313;49.894;8.084;2024-02-23T13:22:39;1.73;;;1.03;;
16407;SDS011;8313;49.894;8.084;2024-02-23T13:25:05;3.07;;;1.00;;
16407;SDS011;8313;49.894;8.084;2024-02-23T13:27:31;1.43;;;1.00;;
16407;SDS011;8313;49.894;8.084;2024-02-23T13:29:56;1.37;;;0.70;;
16407;SDS011;8313;49.894;8.084;2024-02-23T13:32:22;1.40;;;0.97;;
16407;SDS011;8313;49.894;8.084;2024-02-23T13:34:48;3.40;;;1.70;;
16407;SDS011;8313;49.894;8.084;2024-02-23T13:37:17;0.90;;;0.90;;
16407;SDS011;8313;49.894;8.084;2024-02-23T13:39:43;4.83;;;1.10;;
16407;SDS011;8313;49.894;8.084;2024-02-23T13:42:09;1.33;;;0.70;;
16407;SDS011;8313;49.894;8.084;2024-02-23T13:44:38;1.10;;;0.70;;
16407;SDS011;8313;49.894;8.084;2024-02-23T13:47:03;1.07;;;0.60;;
16407;SDS011;8313;49.894;8.084;2024-02-23T13:49:29;1.53;;;0.93;;
16407;SDS011;8313;49.894;8.084;2024-02-23T13:51:54;9.70;;;4.00;;
16407;SDS011;8313;49.894;8.084;2024-02-23T13:54:20;4.13;;;3.13;;
16407;SDS011;8313;49.894;8.084;2024-02-23T13:56:46;3.40;;;1.30;;
16407;SDS011;8313;49.894;8.084;2024-02-23T13:59:12;1.97;;;0.90;;
16407;SDS011;8313;49.894;8.084;2024-02-23T14:01:38;1.43;;;0.80;;
16407;SDS011;8313;49.894;8.084;2024-02-23T14:04:05;4.00;;;1.37;;
16407;SDS011;8313;49.894;8.084;2024-02-23T14:06:32;1.60;;;0.90;;
16407;SDS011;8313;49.894;8.084;2024-02-23T14:08:58;1.63;;;0.60;;
16407;SDS011;8313;49.894;8.084;2024-02-23T14:11:24;0.60;;;0.50;;
16407;SDS011;8313;49.894;8.084;2024-02-23T14:13:50;1.20;;;0.60;;
16407;SDS011;8313;49.894;8.084;2024-02-23T14:16:16;0.90;;;0.63;;
16407;SDS011;8313;49.894;8.084;2024-02-23T14:18:42;1.30;;;0.70;;
16407;SDS011;8313;49.894;8.084;2024-02-23T14:21:09;0.90;;;0.50;;
16407;SDS011;8313;49.894;8.084;2024-02-23T14:23:35;1.40;;;0.70;;
16407;SDS011;8313;49.894;8.084;2024-02-23T14:26:02;0.60;;;0.53;;
16407;SDS011;8313;49.894;8.084;2024-02-23T14:28:28;2.23;;;0.80;;
16407;SDS011;8313;49.894;8.084;2024-02-23T14:30:54;1.03;;;0.70;;
16407;SDS011;8313;49.894;8.084;2024-02-23T14:33:20;1.10;;;0.80;;
16407;SDS011;8313;49.894;8.084;2024-02-23T14:35:46;0.50;;;0.50;;
16407;SDS011;8313;49.894;8.084;2024-02-23T14:38:12;0.60;;;0.60;;
16407;SDS011;8313;49.894;8.084;2024-02-23T14:40:37;0.90;;;0.60;;
16407;SDS011;8313;49.894;8.084;2024-02-23T14:43:04;2.30;;;0.60;;
16407;SDS011;8313;49.894;8.084;2024-02-23T14:45:30;2.03;;;0.83;;
16407;SDS011;8313;49.894;8.084;2024-02-23T14:47:56;1.00;;;0.70;;
16407;SDS011;8313;49.894;8.084;2024-02-23T14:50:23;0.50;;;0.50;;
16407;SDS011;8313;49.894;8.084;2024-02-23T14:52:49;2.50;;;0.80;;
16407;SDS011;8313;49.894;8.084;2024-02-23T14:55:15;1.10;;;1.00;;